Time;durP1;ratioP1;P1;durP2;ratioP2;P2;SDS_P1;SDS_P2;PMS_P1;PMS_P2;Temp;Humidity;BMP_temperature;BMP_pressure;BME280_temperature;BME280_humidity;BME280_pressure;Samples;Min_cycle;Max_cycle;Signal;HPM_P1;HPM_P2
2023/08/02 00:00:01;;;;;;;9.75;3.90;;;;;;;;;;5074692;28;20442;-74
2023/08/02 00:02:27;;;;;;;7.18;4.05;;;;;;;;;;5074565;28;20501;-74
2023/08/02 00:04:53;;;;;;;8.38;4.25;;;;;;;;;;5074523;28;20028;-74
2023/08/02 00:07:19;;;;;;;8.48;3.70;;;;;;;;;;5073701;28;20032;-74
2023/08/02 00:09:48;;;;;;;7.65;3.70;;;;;;;;;;5074425;28;20032;-74
2023/08/02 00:12:14;;;;;;;7.05;3.38;;;;;;;;;;5074380;28;20032;-74
2023/08/02 00:14:41;;;;;;;7.45;3.70;;;;;;;;;;5074193;28;20390;-73
2023/08/02 00:17:07;;;;;;;6.18;3.20;;;;;;;;;;5074096;28;20021;-74
2023/08/02 00:19:33;;;;;;;7.45;3.92;;;;;;;;;;5074049;28;20025;-73
2023/08/02 00:21:59;;;;;;;6.80;3.60;;;;;;;;;;5074087;28;20348;-73
2023/08/02 00:24:26;;;;;;;6.35;3.40;;;;;;;;;;5074284;28;20147;-74
2023/08/02 00:26:52;;;;;;;7.32;3.50;;;;;;;;;;5074333;28;20028;-73
2023/08/02 00:29:18;;;;;;;5.35;3.78;;;;;;;;;;5074026;28;20028;-74
2023/08/02 00:31:44;;;;;;;6.60;3.60;;;;;;;;;;5074235;28;20025;-74
2023/08/02 00:34:10;;;;;;;6.28;4.13;;;;;;;;;;5073505;28;20532;-74
2023/08/02 00:36:36;;;;;;;6.55;3.70;;;;;;;;;;5074012;28;20032;-74
2023/08/02 00:39:03;;;;;;;6.80;3.85;;;;;;;;;;5073826;28;20016;-74
2023/08/02 00:41:29;;;;;;;6.22;3.92;;;;;;;;;;5073597;28;20028;-74
2023/08/02 00:43:55;;;;;;;5.90;3.90;;;;;;;;;;5074205;28;20056;-74
2023/08/02 00:46:21;;;;;;;8.77;4.15;;;;;;;;;;5073598;28;20027;-74
2023/08/02 00:48:47;;;;;;;5.40;3.72;;;;;;;;;;5073262;28;20024;-74
2023/08/02 00:51:17;;;;;;;6.68;3.70;;;;;;;;;;5073409;28;20130;-74
2023/08/02 00:53:44;;;;;;;6.30;3.65;;;;;;;;;;5073750;28;20478;-74
2023/08/02 00:56:10;;;;;;;6.65;3.47;;;;;;;;;;5073716;28;20036;-74
2023/08/02 00:58:36;;;;;;;5.95;4.00;;;;;;;;;;5073797;28;20154;-73
2023/08/02 01:01:07;;;;;;;4.82;3.22;;;;;;;;;;5072575;28;20036;-73
2023/08/02 01:11:43;;;;;;;4.18;3.20;;;;;;;;;;5109743;27;20186;-74
2023/08/02 01:14:10;;;;;;;6.18;3.13;;;;;;;;;;5109934;28;20077;-75
2023/08/02 01:16:37;;;;;;;3.55;2.78;;;;;;;;;;5110069;28;20035;-74
2023/08/02 01:19:09;;;;;;;5.25;3.17;;;;;;;;;;5109742;28;20381;-74
2023/08/02 01:21:35;;;;;;;4.00;2.97;;;;;;;;;;5109739;28;20531;-75
2023/08/02 01:24:02;;;;;;;5.40;3.13;;;;;;;;;;5109500;28;20027;-74
2023/08/02 01:26:36;;;;;;;5.70;3.10;;;;;;;;;;5109802;28;20031;-75
2023/08/02 01:29:03;;;;;;;4.07;2.90;;;;;;;;;;5109715;28;20036;-74
2023/08/02 01:31:31;;;;;;;4.22;2.78;;;;;;;;;;5109455;28;20028;-74
2023/08/02 01:33:58;;;;;;;3.75;2.80;;;;;;;;;;5110006;28;20904;-74
2023/08/02 01:36:25;;;;;;;9.18;2.70;;;;;;;;;;5109550;28;20028;-74
2023/08/02 01:38:52;;;;;;;6.13;2.90;;;;;;;;;;5109685;28;20020;-75
2023/08/02 01:41:18;;;;;;;4.70;2.50;;;;;;;;;;5109556;28;20032;-74
2023/08/02 01:43:44;;;;;;;4.40;2.70;;;;;;;;;;5109164;28;20473;-75
2023/08/02 01:46:10;;;;;;;2.65;2.42;;;;;;;;;;5109118;28;20084;-74
2023/08/02 01:48:36;;;;;;;2.88;2.50;;;;;;;;;;5109319;28;20069;-74
2023/08/02 01:51:02;;;;;;;4.68;2.60;;;;;;;;;;5109104;28;20050;-74
2023/08/02 01:53:28;;;;;;;2.95;2.47;;;;;;;;;;5108974;28;20111;-74
2023/08/02 01:55:54;;;;;;;3.30;2.60;;;;;;;;;;5109150;28;20027;-74
2023/08/02 01:58:20;;;;;;;2.92;2.50;;;;;;;;;;5109227;28;20028;-74
2023/08/02 02:00:47;;;;;;;3.42;2.45;;;;;;;;;;5108895;28;20412;-74
2023/08/02 02:03:13;;;;;;;4.72;2.53;;;;;;;;;;5109746;28;20031;-80
2023/08/02 02:05:39;;;;;;;3.50;2.40;;;;;;;;;;5109836;28;20473;-80
2023/08/02 02:08:05;;;;;;;5.05;2.10;;;;;;;;;;5109430;28;20094;-80
2023/08/02 02:10:31;;;;;;;3.83;2.47;;;;;;;;;;5108896;28;20138;-80
2023/08/02 02:12:57;;;;;;;2.65;2.45;;;;;;;;;;5109895;28;20089;-80
2023/08/02 02:15:24;;;;;;;3.47;2.40;;;;;;;;;;5109895;28;20118;-80
2023/08/02 02:17:50;;;;;;;4.15;2.20;;;;;;;;;;5109819;28;20028;-80
2023/08/02 02:20:16;;;;;;;2.28;2.08;;;;;;;;;;5109870;28;20035;-80
2023/08/02 02:22:42;;;;;;;2.58;2.10;;;;;;;;;;5097413;28;20028;-80
2023/08/02 02:25:08;;;;;;;2.55;2.20;;;;;;;;;;5096312;28;20050;-80
2023/08/02 02:27:34;;;;;;;2.28;2.08;;;;;;;;;;5096285;28;20405;-80
2023/08/02 02:30:00;;;;;;;3.42;2.22;;;;;;;;;;5096209;28;20076;-80
2023/08/02 02:32:26;;;;;;;3.10;2.13;;;;;;;;;;5096153;28;20024;-80
2023/08/02 02:34:52;;;;;;;4.30;2.15;;;;;;;;;;5096275;28;20465;-79
2023/08/02 02:37:18;;;;;;;5.47;2.00;;;;;;;;;;5096420;28;20645;-80
2023/08/02 02:39:45;;;;;;;4.13;2.00;;;;;;;;;;5095915;28;20051;-80
2023/08/02 02:42:11;;;;;;;2.72;2.10;;;;;;;;;;5096030;28;20028;-80
2023/08/02 02:44:41;;;;;;;2.38;2.13;;;;;;;;;;5096309;28;20036;-80
2023/08/02 02:47:08;;;;;;;3.40;2.20;;;;;;;;;;5096309;28;20086;-80
2023/08/02 02:49:34;;;;;;;3.20;2.05;;;;;;;;;;5096441;28;20843;-80
2023/08/02 02:52:00;;;;;;;2.35;1.98;;;;;;;;;;5096085;28;20728;-80
2023/08/02 02:54:26;;;;;;;2.75;1.92;;;;;;;;;;5095742;28;20024;-80
2023/08/02 02:56:52;;;;;;;2.10;1.90;;;;;;;;;;5093884;28;20060;-79
2023/08/02 02:59:18;;;;;;;2.25;1.98;;;;;;;;;;5074459;28;20094;-80
2023/08/02 03:01:44;;;;;;;2.13;1.90;;;;;;;;;;5075027;28;20027;-80
2023/08/02 03:04:13;;;;;;;2.35;1.80;;;;;;;;;;5075338;28;20095;-80
2023/08/02 03:06:39;;;;;;;2.45;2.10;;;;;;;;;;5074960;28;20021;-80
2023/08/02 03:09:05;;;;;;;2.53;2.00;;;;;;;;;;5074835;28;20021;-79
2023/08/02 03:11:32;;;;;;;2.92;1.83;;;;;;;;;;5074723;28;20048;-79
2023/08/02 03:13:58;;;;;;;1.90;1.70;;;;;;;;;;5075243;28;20115;-80
2023/08/02 03:16:26;;;;;;;2.53;1.80;;;;;;;;;;5074915;28;20522;-79
2023/08/02 03:18:55;;;;;;;2.80;1.80;;;;;;;;;;5075196;28;20036;-80
2023/08/02 03:21:21;;;;;;;2.28;1.98;;;;;;;;;;5075756;28;20029;-80
2023/08/02 03:23:47;;;;;;;2.10;1.90;;;;;;;;;;5075605;28;20055;-80
2023/08/02 03:26:13;;;;;;;2.70;1.80;;;;;;;;;;5074874;28;20385;-80
2023/08/02 03:28:39;;;;;;;2.13;1.80;;;;;;;;;;5075458;28;20036;-79
2023/08/02 03:31:05;;;;;;;3.00;1.88;;;;;;;;;;5075002;28;20440;-80
2023/08/02 03:33:31;;;;;;;3.75;2.10;;;;;;;;;;5073884;28;20034;-79
2023/08/02 03:35:58;;;;;;;2.10;1.90;;;;;;;;;;5073498;28;20408;-80
2023/08/02 03:38:24;;;;;;;2.10;1.67;;;;;;;;;;5074630;28;20478;-80
2023/08/02 03:40:50;;;;;;;2.55;1.80;;;;;;;;;;5075104;28;20115;-80
2023/08/02 03:43:16;;;;;;;1.90;1.70;;;;;;;;;;5075157;28;20032;-80
2023/08/02 03:45:42;;;;;;;2.05;1.83;;;;;;;;;;5074912;28;20131;-80
2023/08/02 03:48:08;;;;;;;2.63;1.80;;;;;;;;;;5074893;28;20417;-80
2023/08/02 03:50:35;;;;;;;2.10;1.90;;;;;;;;;;5074300;28;20025;-79
2023/08/02 03:53:04;;;;;;;2.50;1.88;;;;;;;;;;5074622;28;20050;-80
2023/08/02 03:55:30;;;;;;;3.05;1.90;;;;;;;;;;5075034;28;20348;-79
2023/08/02 03:57:56;;;;;;;2.65;1.98;;;;;;;;;;5074307;28;20352;-80
2023/08/02 04:00:22;;;;;;;2.72;1.73;;;;;;;;;;5074968;28;20037;-80
2023/08/02 04:02:48;;;;;;;2.22;1.50;;;;;;;;;;5074647;28;20028;-79
2023/08/02 04:05:14;;;;;;;2.70;2.00;;;;;;;;;;5074088;28;20032;-79
2023/08/02 04:07:40;;;;;;;3.42;1.83;;;;;;;;;;5074745;28;20024;-80
2023/08/02 04:10:07;;;;;;;3.40;2.00;;;;;;;;;;5073831;28;20155;-79
2023/08/02 04:12:33;;;;;;;3.00;1.65;;;;;;;;;;5074213;28;20025;-80
2023/08/02 04:14:59;;;;;;;2.70;1.85;;;;;;;;;;5073305;28;20025;-79
2023/08/02 04:17:25;;;;;;;3.67;1.90;;;;;;;;;;5073046;28;20023;-80
2023/08/02 04:19:51;;;;;;;2.53;1.88;;;;;;;;;;5073972;28;20040;-79
2023/08/02 04:22:18;;;;;;;3.90;2.10;;;;;;;;;;5073335;28;20025;-79
2023/08/02 04:24:44;;;;;;;2.80;1.98;;;;;;;;;;5073877;28;20036;-80
2023/08/02 04:27:10;;;;;;;2.45;1.92;;;;;;;;;;5073152;28;20039;-79
2023/08/02 04:29:36;;;;;;;2.60;2.15;;;;;;;;;;5073095;28;20028;-79
2023/08/02 04:32:02;;;;;;;2.65;1.85;;;;;;;;;;5072614;28;20033;-80
2023/08/02 04:34:31;;;;;;;1.92;1.73;;;;;;;;;;5072996;28;20031;-79
2023/08/02 04:36:57;;;;;;;2.50;1.95;;;;;;;;;;5073854;28;20032;-79
2023/08/02 04:39:29;;;;;;;3.85;1.98;;;;;;;;;;5073335;28;20512;-80
2023/08/02 04:41:56;;;;;;;2.03;1.88;;;;;;;;;;5073714;28;20487;-79
2023/08/02 04:44:22;;;;;;;3.13;2.03;;;;;;;;;;5073436;28;20055;-80
2023/08/02 04:46:48;;;;;;;2.55;1.98;;;;;;;;;;5073845;28;20031;-80
2023/08/02 04:49:14;;;;;;;3.33;2.15;;;;;;;;;;5073557;28;20084;-80
2023/08/02 04:51:41;;;;;;;2.95;2.08;;;;;;;;;;5072753;28;20474;-79
2023/08/02 04:54:07;;;;;;;2.10;1.90;;;;;;;;;;5073530;28;20370;-80
2023/08/02 04:56:33;;;;;;;2.28;2.00;;;;;;;;;;5073654;28;20466;-80
2023/08/02 04:58:59;;;;;;;2.60;1.95;;;;;;;;;;5073534;28;20386;-79
2023/08/02 05:01:25;;;;;;;3.42;2.10;;;;;;;;;;5073562;28;20035;-80
2023/08/02 05:03:51;;;;;;;6.45;2.28;;;;;;;;;;5073530;28;20102;-80
2023/08/02 05:06:17;;;;;;;4.20;2.67;;;;;;;;;;5073512;28;20082;-80
2023/08/02 05:09:04;;;;;;;2.85;2.00;;;;;;;;;;5073626;28;20115;-80
2023/08/02 05:11:40;;;;;;;3.60;1.98;;;;;;;;;;5071807;28;20040;-80
2023/08/02 05:14:07;;;;;;;4.75;2.15;;;;;;;;;;5073062;28;20144;-80
2023/08/02 05:16:33;;;;;;;2.92;2.20;;;;;;;;;;5072707;28;20032;-80
2023/08/02 05:18:59;;;;;;;2.50;2.00;;;;;;;;;;5072748;28;20025;-80
2023/08/02 05:21:25;;;;;;;2.33;1.83;;;;;;;;;;5073264;28;20028;-80
2023/08/02 05:23:52;;;;;;;4.47;2.28;;;;;;;;;;5073199;28;20482;-80
2023/08/02 05:26:18;;;;;;;2.65;2.17;;;;;;;;;;5072365;28;20551;-80
2023/08/02 05:28:44;;;;;;;3.67;2.30;;;;;;;;;;5072787;28;20117;-80
2023/08/02 05:31:11;;;;;;;3.50;2.20;;;;;;;;;;5072931;28;20032;-80
2023/08/02 05:33:37;;;;;;;3.20;2.28;;;;;;;;;;5073190;28;20115;-80
2023/08/02 05:36:03;;;;;;;3.85;2.40;;;;;;;;;;5073108;28;20028;-80
2023/08/02 05:38:30;;;;;;;4.45;2.30;;;;;;;;;;5072843;28;20031;-80
2023/08/02 05:41:01;;;;;;;5.55;2.30;;;;;;;;;;5072038;28;20485;-80
2023/08/02 05:43:27;;;;;;;2.42;1.95;;;;;;;;;;5071696;28;20033;-80
2023/08/02 05:45:53;;;;;;;4.35;2.40;;;;;;;;;;5072358;28;20036;-80
2023/08/02 05:48:19;;;;;;;4.90;2.53;;;;;;;;;;5072550;28;20052;-80
2023/08/02 05:50:45;;;;;;;3.47;2.33;;;;;;;;;;5072809;28;20063;-79
2023/08/02 05:53:11;;;;;;;5.72;2.50;;;;;;;;;;5072648;28;20111;-79
2023/08/02 05:55:38;;;;;;;4.25;2.65;;;;;;;;;;5072130;28;20020;-79
2023/08/02 05:58:04;;;;;;;3.88;2.63;;;;;;;;;;5075180;28;20029;-79
2023/08/02 06:00:30;;;;;;;6.13;2.38;;;;;;;;;;5076028;28;20024;-79
2023/08/02 06:02:56;;;;;;;4.50;2.50;;;;;;;;;;5076009;28;20066;-79
2023/08/02 06:05:28;;;;;;;4.75;2.50;;;;;;;;;;5076495;28;20045;-80
2023/08/02 06:07:55;;;;;;;5.33;2.30;;;;;;;;;;5076015;28;20473;-79
2023/08/02 06:10:21;;;;;;;5.30;2.60;;;;;;;;;;5076017;28;20296;-79
2023/08/02 06:12:48;;;;;;;3.20;2.47;;;;;;;;;;5075578;28;20150;-79
2023/08/02 06:15:14;;;;;;;2.95;2.30;;;;;;;;;;5075212;28;20067;-79
2023/08/02 06:17:40;;;;;;;4.10;2.40;;;;;;;;;;5074865;28;20020;-79
2023/08/02 06:20:07;;;;;;;5.47;2.83;;;;;;;;;;5074860;28;20539;-79
2023/08/02 06:22:33;;;;;;;7.50;2.60;;;;;;;;;;5074813;28;20378;-80
2023/08/02 06:24:59;;;;;;;3.58;2.80;;;;;;;;;;5074774;28;20021;-79
2023/08/02 06:27:25;;;;;;;4.18;2.80;;;;;;;;;;5075053;28;20058;-80
2023/08/02 06:29:51;;;;;;;5.63;2.70;;;;;;;;;;5075168;28;20039;-80
2023/08/02 06:32:17;;;;;;;3.28;2.33;;;;;;;;;;5077558;28;20500;-79
2023/08/02 06:34:44;;;;;;;5.10;2.72;;;;;;;;;;5082654;28;20028;-79
2023/08/02 06:37:13;;;;;;;4.78;3.08;;;;;;;;;;5076352;28;20108;-79
2023/08/02 06:39:39;;;;;;;5.55;3.08;;;;;;;;;;5073990;28;20017;-79
2023/08/02 06:42:06;;;;;;;6.82;2.90;;;;;;;;;;5074566;28;20032;-79
2023/08/02 06:44:32;;;;;;;5.25;3.17;;;;;;;;;;5074266;28;20024;-79
2023/08/02 06:46:58;;;;;;;6.03;3.20;;;;;;;;;;5074417;28;20021;-79
2023/08/02 06:49:24;;;;;;;4.38;2.70;;;;;;;;;;5074179;28;20522;-79
2023/08/02 06:51:50;;;;;;;4.90;3.13;;;;;;;;;;5088355;28;20047;-79
2023/08/02 06:54:19;;;;;;;5.03;2.88;;;;;;;;;;5086230;28;20162;-79
2023/08/02 06:56:45;;;;;;;4.97;2.75;;;;;;;;;;5074597;28;20025;-78
2023/08/02 06:59:11;;;;;;;4.85;3.10;;;;;;;;;;5074244;28;20063;-79
2023/08/02 07:01:37;;;;;;;7.68;3.10;;;;;;;;;;5087426;28;20129;-80
2023/08/02 07:04:03;;;;;;;6.82;3.15;;;;;;;;;;5094444;28;20489;-81
2023/08/02 07:06:30;;;;;;;7.45;3.15;;;;;;;;;;5093876;28;20039;-81
2023/08/02 07:08:56;;;;;;;7.07;3.58;;;;;;;;;;5094437;28;20028;-83
2023/08/02 07:11:22;;;;;;;10.07;3.40;;;;;;;;;;5094121;28;20067;-80
2023/08/02 07:13:52;;;;;;;8.43;4.00;;;;;;;;;;5094395;28;20024;-74
2023/08/02 07:16:18;;;;;;;8.05;3.80;;;;;;;;;;5093950;28;20061;-74
2023/08/02 07:18:44;;;;;;;7.95;3.30;;;;;;;;;;5092027;28;20112;-75
2023/08/02 07:21:10;;;;;;;6.47;3.50;;;;;;;;;;5093007;28;20090;-74
2023/08/02 07:23:37;;;;;;;6.88;3.28;;;;;;;;;;5089543;28;20032;-73
2023/08/02 07:26:04;;;;;;;6.95;2.90;;;;;;;;;;5089670;28;20723;-76
2023/08/02 07:28:31;;;;;;;5.80;3.17;;;;;;;;;;5090187;28;20031;-78
2023/08/02 07:31:10;;;;;;;5.00;3.35;;;;;;;;;;5091438;28;20092;-78
2023/08/02 07:33:37;;;;;;;5.25;3.60;;;;;;;;;;5092733;28;20024;-79
2023/08/02 07:36:03;;;;;;;4.68;3.10;;;;;;;;;;5084948;28;20032;-80
2023/08/02 07:38:30;;;;;;;6.40;3.28;;;;;;;;;;5090358;28;20038;-73
2023/08/02 07:40:56;;;;;;;6.97;3.15;;;;;;;;;;5093056;28;20135;-86
2023/08/02 07:43:23;;;;;;;5.40;3.03;;;;;;;;;;5089551;28;20028;-80
2023/08/02 07:45:49;;;;;;;10.27;3.40;;;;;;;;;;5074123;28;20043;-80
2023/08/02 07:48:15;;;;;;;6.00;2.85;;;;;;;;;;5091628;28;20039;-84
2023/08/02 07:50:41;;;;;;;4.20;2.30;;;;;;;;;;5093607;28;20501;-83
2023/08/02 07:53:07;;;;;;;4.45;2.60;;;;;;;;;;5092212;28;20051;-80
2023/08/02 07:55:34;;;;;;;7.15;2.80;;;;;;;;;;5091838;28;20147;-82
2023/08/02 07:58:00;;;;;;;9.93;3.50;;;;;;;;;;5088339;28;20035;-76
2023/08/02 08:00:27;;;;;;;12.95;5.03;;;;;;;;;;5088279;28;20493;-81
2023/08/02 08:02:54;;;;;;;8.82;4.28;;;;;;;;;;5083482;28;20474;-81
2023/08/02 08:05:20;;;;;;;8.65;3.28;;;;;;;;;;5086301;28;20071;-82
2023/08/02 08:07:46;;;;;;;6.75;2.90;;;;;;;;;;5092792;28;20043;-82
2023/08/02 08:10:12;;;;;;;3.85;2.70;;;;;;;;;;5091744;28;20052;-80
2023/08/02 08:12:44;;;;;;;13.45;3.10;;;;;;;;;;5078918;28;20021;-85
2023/08/02 08:15:10;;;;;;;5.93;2.78;;;;;;;;;;5093617;28;20035;-82
2023/08/02 08:17:36;;;;;;;54.03;7.97;;;;;;;;;;5090120;28;20378;-81
2023/08/02 08:20:04;;;;;;;28.63;4.90;;;;;;;;;;5085135;28;20032;-82
2023/08/02 08:22:30;;;;;;;19.15;4.30;;;;;;;;;;5085044;28;20028;-79
2023/08/02 08:25:01;;;;;;;17.85;5.00;;;;;;;;;;5083840;28;20570;-76
2023/08/02 08:27:27;;;;;;;8.55;4.45;;;;;;;;;;5089927;28;20036;-77
2023/08/02 08:29:53;;;;;;;9.00;3.15;;;;;;;;;;5089673;28;20032;-82
2023/08/02 08:32:20;;;;;;;6.40;2.70;;;;;;;;;;5091861;28;20031;-83
2023/08/02 08:34:46;;;;;;;10.68;3.42;;;;;;;;;;5081300;28;20020;-79
2023/08/02 08:37:12;;;;;;;6.03;2.90;;;;;;;;;;5082780;28;20031;-84
2023/08/02 08:39:38;;;;;;;9.48;3.17;;;;;;;;;;5084226;28;20029;-81
2023/08/02 08:42:08;;;;;;;7.97;2.83;;;;;;;;;;5089190;28;20797;-77
2023/08/02 08:44:38;;;;;;;7.72;2.88;;;;;;;;;;5089527;28;20036;-79
2023/08/02 08:47:06;;;;;;;5.72;2.88;;;;;;;;;;5089097;28;20016;-81
2023/08/02 08:49:33;;;;;;;6.10;2.90;;;;;;;;;;5085174;28;20032;-77
2023/08/02 08:52:03;;;;;;;5.60;2.97;;;;;;;;;;5091736;28;20062;-72
2023/08/02 08:54:29;;;;;;;7.70;3.33;;;;;;;;;;5091204;28;20024;-74
2023/08/02 08:56:56;;;;;;;5.93;3.45;;;;;;;;;;5089389;28;20082;-75
2023/08/02 08:59:22;;;;;;;6.68;2.90;;;;;;;;;;5071117;28;20024;-74
2023/08/02 09:01:48;;;;;;;4.97;2.83;;;;;;;;;;5076112;28;20462;-73
2023/08/02 09:04:14;;;;;;;4.75;2.95;;;;;;;;;;5090632;28;20046;-72
2023/08/02 09:06:40;;;;;;;4.68;2.90;;;;;;;;;;5085818;28;20040;-74
2023/08/02 09:09:06;;;;;;;5.18;3.00;;;;;;;;;;5075137;28;20065;-71
2023/08/02 09:11:32;;;;;;;3.58;2.65;;;;;;;;;;5090166;28;20044;-76
2023/08/02 09:14:12;;;;;;;6.70;2.72;;;;;;;;;;5092730;28;20029;-74
2023/08/02 09:16:59;;;;;;;4.50;2.72;;;;;;;;;;5090554;28;20412;-76
2023/08/02 09:19:29;;;;;;;4.60;2.80;;;;;;;;;;5090038;28;20428;-73
2023/08/02 09:22:12;;;;;;;3.60;2.55;;;;;;;;;;5079038;28;20024;-80
2023/08/02 09:24:40;;;;;;;4.05;2.63;;;;;;;;;;5091387;28;20044;-74
2023/08/02 09:27:06;;;;;;;6.53;3.08;;;;;;;;;;5091419;28;20028;-73
2023/08/02 09:32:23;;;;;;;4.50;3.42;;;;;;;;;;5163073;27;20290;-75
2023/08/02 09:34:53;;;;;;;4.38;3.58;;;;;;;;;;5151221;27;20041;-75
2023/08/02 09:37:30;;;;;;;5.45;3.22;;;;;;;;;;5143229;27;20135;-78
2023/08/02 09:39:57;;;;;;;8.43;3.75;;;;;;;;;;5150873;27;20035;-73
2023/08/02 09:42:27;;;;;;;8.95;3.20;;;;;;;;;;5150674;27;20027;-76
2023/08/02 09:45:01;;;;;;;5.78;3.33;;;;;;;;;;5151797;27;20027;-74
2023/08/02 09:47:28;;;;;;;4.38;3.00;;;;;;;;;;5132857;27;20050;-77
2023/08/02 09:50:21;;;;;;;6.45;3.13;;;;;;;;;;5148930;27;20031;-77
2023/08/02 09:52:47;;;;;;;3.80;2.67;;;;;;;;;;5135026;27;20080;-77
2023/08/02 09:55:13;;;;;;;5.97;3.00;;;;;;;;;;5150588;27;20538;-76
2023/08/02 09:57:43;;;;;;;3.85;3.00;;;;;;;;;;5147072;27;20031;-74
2023/08/02 10:00:10;;;;;;;6.72;3.05;;;;;;;;;;5143598;27;20031;-77
2023/08/02 10:02:37;;;;;;;9.80;3.40;;;;;;;;;;5150423;27;20426;-75
2023/08/02 10:05:03;;;;;;;6.57;3.00;;;;;;;;;;5149533;27;20023;-71
2023/08/02 10:07:43;;;;;;;7.07;3.30;;;;;;;;;;5149915;27;20424;-73
2023/08/02 10:10:13;;;;;;;8.18;3.75;;;;;;;;;;5145451;27;20422;-68
2023/08/02 10:12:42;;;;;;;6.15;3.60;;;;;;;;;;5144832;27;20030;-73
2023/08/02 10:15:09;;;;;;;6.20;3.40;;;;;;;;;;5145461;27;20031;-69
2023/08/02 10:17:36;;;;;;;6.78;3.10;;;;;;;;;;5147203;27;20871;-73
2023/08/02 10:20:04;;;;;;;5.95;2.95;;;;;;;;;;5136444;27;20131;-69
2023/08/02 10:22:31;;;;;;;6.95;3.20;;;;;;;;;;5130388;27;20077;-69
2023/08/02 10:24:57;;;;;;;4.32;2.80;;;;;;;;;;5145662;27;20353;-74
2023/08/02 10:27:24;;;;;;;4.38;2.80;;;;;;;;;;5144533;27;20126;-73
2023/08/02 10:29:50;;;;;;;4.85;3.08;;;;;;;;;;5137843;27;20031;-73
2023/08/02 10:32:21;;;;;;;8.23;2.90;;;;;;;;;;5131927;27;20063;-71
2023/08/02 10:34:49;;;;;;;6.45;3.40;;;;;;;;;;5142800;27;20072;-72
2023/08/02 10:37:15;;;;;;;4.47;3.13;;;;;;;;;;5136886;27;20068;-74
2023/08/02 10:42:26;;;;;;;6.25;3.80;;;;;;;;;;5109109;27;20852;-73
2023/08/02 10:47:35;;;;;;;5.38;3.10;;;;;;;;;;5125582;27;20902;-75
2023/08/02 10:50:02;;;;;;;3.85;2.80;;;;;;;;;;5108917;28;20539;-74
2023/08/02 10:52:29;;;;;;;4.63;2.83;;;;;;;;;;5108201;28;20030;-74
2023/08/02 11:01:08;;;;;;;3.88;2.72;;;;;;;;;;5046827;28;20377;-72
2023/08/02 11:03:43;;;;;;;4.40;3.40;;;;;;;;;;5035803;28;20030;-72
2023/08/02 11:06:23;;;;;;;4.03;3.17;;;;;;;;;;5016410;28;20027;-77
2023/08/02 11:08:49;;;;;;;4.13;3.03;;;;;;;;;;5023201;28;20028;-74
2023/08/02 11:11:15;;;;;;;4.57;3.10;;;;;;;;;;5028332;28;20030;-73
2023/08/02 11:13:41;;;;;;;3.72;2.88;;;;;;;;;;5024786;28;20069;-75
2023/08/02 11:16:09;;;;;;;5.65;2.90;;;;;;;;;;5008941;28;20034;-74
2023/08/02 11:18:35;;;;;;;3.55;2.80;;;;;;;;;;5010590;28;20403;-73
2023/08/02 11:21:08;;;;;;;3.67;2.85;;;;;;;;;;5009459;28;20022;-75
2023/08/02 11:23:34;;;;;;;3.88;2.60;;;;;;;;;;5013342;28;20183;-71
2023/08/02 11:26:08;;;;;;;3.63;2.90;;;;;;;;;;5013841;28;20033;-74
2023/08/02 11:31:18;;;;;;;4.93;2.55;;;;;;;;;;5121871;27;20369;-72
2023/08/02 11:33:55;;;;;;;;;;;;;;;;;;;;;
2023/08/02 11:36:23;;;;;;;3.83;2.75;;;;;;;;;;5109542;28;20034;-75
2023/08/02 11:38:49;;;;;;;4.53;2.70;;;;;;;;;;5108330;28;20024;-73
2023/08/02 11:43:51;;;;;;;4.13;2.90;;;;;;;;;;5104386;27;20457;-73
2023/08/02 11:46:27;;;;;;;3.83;2.97;;;;;;;;;;5106921;28;20028;-72
2023/08/02 11:48:58;;;;;;;3.22;2.78;;;;;;;;;;5086309;27;20032;-73
2023/08/02 11:51:24;;;;;;;4.75;2.72;;;;;;;;;;5086620;28;20489;-75
2023/08/02 11:53:59;;;;;;;5.57;2.65;;;;;;;;;;5083990;28;20139;-75
2023/08/02 11:56:26;;;;;;;5.32;2.92;;;;;;;;;;5077620;28;20029;-73
2023/08/02 11:58:53;;;;;;;3.67;2.63;;;;;;;;;;5086417;28;20028;-74
2023/08/02 12:01:20;;;;;;;5.07;2.70;;;;;;;;;;5087955;28;20040;-75
2023/08/02 12:03:57;;;;;;;4.25;2.65;;;;;;;;;;5071288;28;20020;-74
2023/08/02 12:06:23;;;;;;;4.80;2.85;;;;;;;;;;5083238;28;20082;-73
2023/08/02 12:11:29;;;;;;;3.95;2.60;;;;;;;;;;5109696;27;20373;-75
2023/08/02 12:13:55;;;;;;;4.80;2.80;;;;;;;;;;5109746;28;20092;-77
2023/08/02 12:16:21;;;;;;;4.22;2.58;;;;;;;;;;5110084;28;20436;-74
2023/08/02 12:18:57;;;;;;;5.13;2.60;;;;;;;;;;5110526;28;20054;-74
2023/08/02 12:24:47;;;;;;;4.03;2.70;;;;;;;;;;5053966;28;20028;-73
2023/08/02 12:27:15;;;;;;;6.20;2.85;;;;;;;;;;5087996;28;20107;-76
2023/08/02 12:29:44;;;;;;;3.40;2.63;;;;;;;;;;5089692;28;20504;-75
2023/08/02 12:32:24;;;;;;;3.78;2.75;;;;;;;;;;5088971;28;20194;-75
2023/08/02 12:34:50;;;;;;;3.28;2.55;;;;;;;;;;5106755;28;20469;-76
2023/08/02 12:37:16;;;;;;;4.40;2.53;;;;;;;;;;5095961;28;20105;-76
2023/08/02 12:39:43;;;;;;;3.25;2.47;;;;;;;;;;5096944;28;20074;-80
2023/08/02 12:42:09;;;;;;;4.45;2.67;;;;;;;;;;5110134;28;20028;-79
2023/08/02 12:44:37;;;;;;;4.60;2.53;;;;;;;;;;5109926;28;20783;-78
2023/08/02 12:47:04;;;;;;;4.80;2.63;;;;;;;;;;5108621;28;20414;-76
2023/08/02 12:49:30;;;;;;;4.03;2.63;;;;;;;;;;5109825;28;20495;-73
2023/08/02 12:51:56;;;;;;;3.78;2.40;;;;;;;;;;5109220;28;20806;-75
2023/08/02 12:54:22;;;;;;;4.25;2.75;;;;;;;;;;5109927;28;20027;-77
2023/08/02 12:56:48;;;;;;;4.20;2.60;;;;;;;;;;5094345;28;20489;-77
2023/08/02 12:59:14;;;;;;;4.25;2.70;;;;;;;;;;5106958;28;20478;-77
2023/08/02 13:01:40;;;;;;;13.32;3.15;;;;;;;;;;5106446;28;20031;-75
2023/08/02 13:04:06;;;;;;;29.35;6.22;;;;;;;;;;5109449;28;20031;-75
2023/08/02 13:06:32;;;;;;;45.90;8.77;;;;;;;;;;5101929;28;20797;-76
2023/08/02 13:08:59;;;;;;;26.60;6.32;;;;;;;;;;5105112;28;20028;-74
2023/08/02 13:11:26;;;;;;;13.25;4.10;;;;;;;;;;5105890;28;20058;-72
2023/08/02 13:13:52;;;;;;;9.93;3.83;;;;;;;;;;5095535;28;20016;-75
2023/08/02 13:16:19;;;;;;;13.25;4.22;;;;;;;;;;5096956;28;20028;-76
2023/08/02 13:18:45;;;;;;;12.70;4.25;;;;;;;;;;5105658;28;20480;-76
2023/08/02 13:21:11;;;;;;;11.88;4.18;;;;;;;;;;5104347;28;20568;-75
2023/08/02 13:23:37;;;;;;;13.57;4.00;;;;;;;;;;5094201;28;20050;-75
2023/08/02 13:26:03;;;;;;;11.13;3.78;;;;;;;;;;5095187;28;20056;-75
2023/08/02 13:28:30;;;;;;;10.50;3.80;;;;;;;;;;5090135;28;20055;-74
2023/08/02 13:30:58;;;;;;;12.18;3.40;;;;;;;;;;5080873;28;20493;-74
2023/08/02 13:33:26;;;;;;;12.45;3.80;;;;;;;;;;5069155;28;20074;-72
2023/08/02 13:35:52;;;;;;;11.75;3.70;;;;;;;;;;5093880;28;20443;-72
2023/08/02 13:38:19;;;;;;;9.95;3.53;;;;;;;;;;5094012;28;20043;-72
2023/08/02 13:40:45;;;;;;;9.95;3.22;;;;;;;;;;5094505;28;20028;-72
2023/08/02 13:43:11;;;;;;;11.73;3.83;;;;;;;;;;5093194;28;20061;-74
2023/08/02 13:45:37;;;;;;;6.57;3.30;;;;;;;;;;5094127;28;20089;-74
2023/08/02 13:48:15;;;;;;;5.38;3.10;;;;;;;;;;5093623;28;20028;-73
2023/08/02 13:50:42;;;;;;;9.10;3.22;;;;;;;;;;5093940;28;20040;-75
2023/08/02 13:53:08;;;;;;;8.25;3.60;;;;;;;;;;5092739;28;20069;-72
2023/08/02 13:55:35;;;;;;;9.27;3.17;;;;;;;;;;5093412;28;20035;-75
2023/08/02 13:58:03;;;;;;;7.85;3.20;;;;;;;;;;5093935;28;20439;-74
2023/08/02 14:00:29;;;;;;;8.90;3.17;;;;;;;;;;5094618;28;20476;-78
2023/08/02 14:03:01;;;;;;;7.65;3.10;;;;;;;;;;5094806;28;20036;-77
2023/08/02 14:05:27;;;;;;;7.57;2.88;;;;;;;;;;5094250;28;20032;-78
2023/08/02 14:07:53;;;;;;;7.13;2.90;;;;;;;;;;5094927;28;20115;-75
2023/08/02 14:10:20;;;;;;;6.50;3.00;;;;;;;;;;5093078;28;20123;-75
2023/08/02 14:12:46;;;;;;;7.63;3.15;;;;;;;;;;5094591;28;20032;-74
2023/08/02 14:15:12;;;;;;;5.53;3.05;;;;;;;;;;5093291;28;20031;-73
2023/08/02 14:17:38;;;;;;;7.75;3.17;;;;;;;;;;5093154;28;20520;-73
2023/08/02 14:20:04;;;;;;;6.97;3.10;;;;;;;;;;5093805;28;20381;-74
2023/08/02 14:22:33;;;;;;;4.60;3.10;;;;;;;;;;5092810;28;20024;-76
2023/08/02 14:24:59;;;;;;;5.13;3.00;;;;;;;;;;5094605;28;20035;-74
2023/08/02 14:27:26;;;;;;;4.53;2.83;;;;;;;;;;5094336;28;20085;-75
2023/08/02 14:29:52;;;;;;;4.80;3.00;;;;;;;;;;5094372;28;20036;-75
2023/08/02 14:32:18;;;;;;;5.38;2.90;;;;;;;;;;5094129;28;20024;-78
2023/08/02 14:34:44;;;;;;;4.10;2.72;;;;;;;;;;5091380;28;20030;-79
2023/08/02 14:37:10;;;;;;;4.22;2.80;;;;;;;;;;5093163;28;20032;-75
2023/08/02 14:39:36;;;;;;;4.68;3.00;;;;;;;;;;5094094;28;20039;-75
2023/08/02 14:42:02;;;;;;;5.18;2.55;;;;;;;;;;5091470;28;20039;-76
2023/08/02 14:44:28;;;;;;;3.80;2.55;;;;;;;;;;5092620;28;20043;-74
2023/08/02 14:46:55;;;;;;;4.10;2.50;;;;;;;;;;5091607;28;20031;-77
2023/08/02 14:49:21;;;;;;;3.65;2.58;;;;;;;;;;5092986;28;20082;-77
2023/08/02 14:51:47;;;;;;;4.03;2.88;;;;;;;;;;5092020;28;20107;-74
2023/08/02 14:54:13;;;;;;;5.25;2.70;;;;;;;;;;5089616;28;20020;-73
2023/08/02 14:56:39;;;;;;;4.07;2.42;;;;;;;;;;5092490;28;20454;-75
2023/08/02 14:59:05;;;;;;;2.72;2.30;;;;;;;;;;5093355;28;20059;-74
2023/08/02 15:01:36;;;;;;;4.50;2.65;;;;;;;;;;5090382;28;20473;-72
2023/08/02 15:04:02;;;;;;;4.45;2.50;;;;;;;;;;5091423;28;20039;-75
2023/08/02 15:06:28;;;;;;;6.65;2.80;;;;;;;;;;5087752;28;20033;-75
2023/08/02 15:08:54;;;;;;;4.20;2.50;;;;;;;;;;5090295;28;20028;-74
2023/08/02 15:11:20;;;;;;;5.70;2.20;;;;;;;;;;5090900;28;20046;-76
2023/08/02 15:13:47;;;;;;;3.85;2.60;;;;;;;;;;5087762;28;20028;-74
2023/08/02 15:16:13;;;;;;;4.13;2.30;;;;;;;;;;5085263;28;20074;-75